Aviation Digital Data Service (ADDS)

Output produced by METARs form (1552 UTC 03 June 2020)
found at http://www.aviationweather.gov/metar/data/
 
Forecast for: EGNX (EAST MIDLANDS , GB)
Text: TAF EGNX 031057Z 0312/0412 01008KT 9999 SCT020
Forecast period: 1200 UTC 03 June 2020 to 1200 UTC 04 June 2020
Forecast type: FROM: standard forecast or significant change
Winds: from the N (10 degrees) at 9 MPH (8 knots; 4.1 m/s)
Visibility: 6 or more miles 10+ km)
Ceiling: at least 12,000 feet AGL
Clouds: scattered clouds at 2000 feet AGL
Weather: no significant weather forecast for this period
Text: TEMPO 0312/0401 7000 -RA BKN014
Forecast period: 1200 UTC 03 June 2020 to 0100 UTC 04 June 2020
Forecast type: TEMPORARY: The following changes expected for less than half the time period
Visibility: 4 miles (7 km)
Ceiling: 1400 feet AGL
Clouds: broken clouds at 1400 feet AGL
Weather: -RA  (light rain)
Text: PROB30
Forecast period: 1200 to 1800 UTC 03 June 2020
Forecast type: TEMPORARY: The following changes expected for less than half the time period
Visibility: 2.49 miles (4.01 km)
Ceiling: 800 feet AGL
Clouds: broken clouds at 800 feet AGL
Weather: RA  (moderate rain)